createdAt,value
2022-08-16T00:00:03.309Z,9.55
2022-08-16T00:05:00.234Z,9.55
2022-08-16T00:07:30.210Z,8.63
2022-08-16T00:09:59.437Z,10.05
2022-08-16T00:12:30.150Z,11.50
2022-08-16T00:15:00.041Z,9.73
2022-08-16T00:17:28.258Z,6.63
2022-08-16T00:19:56.313Z,9.45
2022-08-16T00:22:25.374Z,7.43
2022-08-16T00:24:54.698Z,10.80
2022-08-16T00:27:23.466Z,10.05
2022-08-16T00:30:08.278Z,8.63
2022-08-16T00:32:41.677Z,7.75
2022-08-16T00:35:16.031Z,7.85
2022-08-16T00:37:57.274Z,7.80
2022-08-16T00:40:43.551Z,8.40
2022-08-16T00:43:19.350Z,9.63
2022-08-16T00:45:58.069Z,7.40
2022-08-16T00:48:30.950Z,8.73
2022-08-16T00:51:03.934Z,9.95
2022-08-16T00:53:33.317Z,10.07
2022-08-16T00:56:05.709Z,7.55
2022-08-16T00:58:35.534Z,8.55
2022-08-16T01:01:08.496Z,9.52
2022-08-16T01:03:41.585Z,6.50
2022-08-16T01:06:32.525Z,9.13
2022-08-16T01:09:01.709Z,5.32
2022-08-16T01:11:31.457Z,9.00
2022-08-16T01:14:29.859Z,8.13
2022-08-16T01:17:00.206Z,7.72
2022-08-16T01:19:40.846Z,9.90
2022-08-16T01:22:48.592Z,9.77
2022-08-16T01:25:19.002Z,6.80
2022-08-16T01:27:53.259Z,6.95
2022-08-16T01:30:34.615Z,6.78
2022-08-16T01:33:14.378Z,9.02
2022-08-16T01:36:02.031Z,7.30
2022-08-16T01:38:46.952Z,11.95
2022-08-16T01:41:25.918Z,8.10
2022-08-16T01:44:00.877Z,7.07
2022-08-16T01:46:40.823Z,10.70
2022-08-16T01:49:43.086Z,9.30
2022-08-16T01:52:29.830Z,11.05
2022-08-16T01:55:17.736Z,11.50
2022-08-16T01:57:53.461Z,7.20
2022-08-16T02:00:29.354Z,10.23
2022-08-16T02:02:59.610Z,8.27
2022-08-16T02:05:30.559Z,10.07
2022-08-16T02:08:00.980Z,9.52
2022-08-16T02:10:29.341Z,8.93
2022-08-16T02:13:00.692Z,8.63
2022-08-16T02:15:40.287Z,11.45
2022-08-16T02:18:12.830Z,9.10
2022-08-16T02:20:45.561Z,9.57
2022-08-16T02:23:17.213Z,9.35
2022-08-16T02:25:51.845Z,11.52
2022-08-16T02:28:23.625Z,15.57
2022-08-16T02:30:53.013Z,10.38
2022-08-16T02:33:44.679Z,9.05
2022-08-16T02:36:36.636Z,10.65
2022-08-16T02:39:09.886Z,10.05
2022-08-16T02:41:39.540Z,14.45
2022-08-16T02:44:13.674Z,11.73
2022-08-16T02:46:50.684Z,11.10
2022-08-16T02:49:22.061Z,13.77
2022-08-16T02:51:59.695Z,11.90
2022-08-16T02:54:29.259Z,8.95
2022-08-16T02:56:56.942Z,10.52
2022-08-16T02:59:24.442Z,14.70
2022-08-16T03:01:51.919Z,19.45
2022-08-16T03:04:50.241Z,13.73
2022-08-16T03:07:16.140Z,9.50
2022-08-16T03:09:55.379Z,10.55
2022-08-16T03:12:30.103Z,14.68
2022-08-16T03:14:59.380Z,14.00
2022-08-16T03:17:32.273Z,13.38
2022-08-16T03:20:04.742Z,11.45
2022-08-16T03:22:36.598Z,11.48
2022-08-16T03:25:11.785Z,9.18
2022-08-16T03:27:42.911Z,10.73
2022-08-16T03:30:20.311Z,13.95
2022-08-16T03:32:52.412Z,10.73
2022-08-16T03:35:33.041Z,13.30
2022-08-16T03:38:33.638Z,13.07
2022-08-16T03:41:17.210Z,11.77
2022-08-16T03:43:57.103Z,13.45
2022-08-16T03:46:47.882Z,10.05
2022-08-16T03:49:35.781Z,11.88
2022-08-16T03:52:05.994Z,13.40
2022-08-16T03:54:36.020Z,9.20
2022-08-16T03:57:05.104Z,11.40
2022-08-16T03:59:34.150Z,10.10
2022-08-16T04:02:22.556Z,9.65
2022-08-16T04:04:59.380Z,12.25
2022-08-16T04:07:26.500Z,10.35
2022-08-16T04:10:35.926Z,10.13
2022-08-16T04:12:54.403Z,10.95
2022-08-16T04:15:24.538Z,11.05
2022-08-16T04:18:10.083Z,10.63
2022-08-16T04:20:39.569Z,12.10
2022-08-16T04:23:09.340Z,11.50
2022-08-16T04:25:39.439Z,10.05
2022-08-16T04:28:51.596Z,11.25
2022-08-16T04:30:57.425Z,10.30
2022-08-16T04:33:27.085Z,9.85
2022-08-16T04:35:58.752Z,12.25
2022-08-16T04:38:27.769Z,11.48
2022-08-16T04:40:58.567Z,9.60
2022-08-16T04:43:27.178Z,8.60
2022-08-16T04:46:03.150Z,9.83
2022-08-16T04:48:40.804Z,9.63
2022-08-16T04:51:12.748Z,9.85
2022-08-16T04:53:49.552Z,15.57
2022-08-16T04:56:20.253Z,7.93
2022-08-16T04:58:48.982Z,9.95
2022-08-16T05:01:18.199Z,12.88
2022-08-16T05:03:59.739Z,9.52
2022-08-16T05:06:45.134Z,10.50
2022-08-16T05:09:23.133Z,8.95
2022-08-16T05:11:57.522Z,12.48
2022-08-16T05:14:46.496Z,12.25
2022-08-16T05:17:24.722Z,9.13
2022-08-16T05:19:57.943Z,11.25
2022-08-16T05:22:30.427Z,13.85
2022-08-16T05:25:02.470Z,13.02
2022-08-16T05:27:42.937Z,12.75
2022-08-16T05:30:35.177Z,10.90
2022-08-16T05:33:06.397Z,8.77
2022-08-16T05:35:36.943Z,8.88
2022-08-16T05:38:30.880Z,10.32
2022-08-16T05:41:05.295Z,8.63
2022-08-16T05:46:34.060Z,11.30
2022-08-16T05:49:18.025Z,13.07
2022-08-16T05:51:55.396Z,8.88
2022-08-16T05:54:25.079Z,12.93
2022-08-16T05:56:57.390Z,8.30
2022-08-16T05:59:27.571Z,9.50
2022-08-16T06:01:57.217Z,14.40
2022-08-16T06:04:35.196Z,11.00
2022-08-16T06:07:24.575Z,10.10
2022-08-16T06:10:02.559Z,10.13
2022-08-16T06:12:33.161Z,11.05
2022-08-16T06:15:10.223Z,12.95
2022-08-16T06:17:44.186Z,12.45
2022-08-16T06:20:35.574Z,12.15
2022-08-16T06:23:18.113Z,8.73
2022-08-16T06:26:11.392Z,13.63
2022-08-16T06:28:42.667Z,13.57
2022-08-16T06:31:24.579Z,10.70
2022-08-16T06:33:55.182Z,7.95
2022-08-16T06:36:24.353Z,10.57
2022-08-16T06:39:05.045Z,6.72
2022-08-16T06:42:00.353Z,9.90
2022-08-16T06:45:00.494Z,7.60
2022-08-16T06:47:54.365Z,9.68
2022-08-16T06:50:28.792Z,13.73
2022-08-16T06:56:00.854Z,9.55
2022-08-16T06:58:40.745Z,10.80
2022-08-16T07:01:14.831Z,13.77
2022-08-16T07:03:55.756Z,6.30
2022-08-16T07:06:31.677Z,10.52
2022-08-16T07:09:09.730Z,7.85
2022-08-16T07:11:45.617Z,7.35
2022-08-16T07:14:26.375Z,11.02
2022-08-16T07:16:59.068Z,7.30
2022-08-16T07:20:01.616Z,8.95
2022-08-16T07:22:37.742Z,8.50
2022-08-16T07:25:11.788Z,18.15
2022-08-16T07:27:40.475Z,8.13
2022-08-16T07:33:02.609Z,11.32
2022-08-16T07:35:30.054Z,10.82
2022-08-16T07:37:58.615Z,7.72
2022-08-16T07:40:58.049Z,11.15
2022-08-16T07:43:18.892Z,12.30
2022-08-16T07:45:53.229Z,12.65
2022-08-16T07:48:21.830Z,11.25
2022-08-16T07:50:59.178Z,10.18
2022-08-16T07:53:31.133Z,8.68
2022-08-16T07:56:04.401Z,9.27
2022-08-16T07:58:38.618Z,11.27
2022-08-16T08:01:12.521Z,10.35
2022-08-16T08:03:51.883Z,10.23
2022-08-16T08:06:28.867Z,9.82
2022-08-16T08:09:00.834Z,11.90
2022-08-16T08:11:30.645Z,7.93
2022-08-16T08:14:03.316Z,14.15
2022-08-16T08:16:36.452Z,11.50
2022-08-16T08:19:12.477Z,9.48
2022-08-16T08:21:59.978Z,11.45
2022-08-16T08:24:39.127Z,9.27
2022-08-16T08:27:13.263Z,13.02
2022-08-16T08:30:49.610Z,8.63
2022-08-16T08:33:00.020Z,7.65
2022-08-16T08:35:33.424Z,8.30
2022-08-16T08:38:03.975Z,8.32
2022-08-16T08:40:35.944Z,10.63
2022-08-16T08:43:11.751Z,9.30
2022-08-16T08:45:47.116Z,11.45
2022-08-16T08:48:34.282Z,9.30
2022-08-16T08:51:11.787Z,8.48
2022-08-16T08:53:57.259Z,6.78
2022-08-16T08:56:32.216Z,7.88
2022-08-16T08:59:22.437Z,5.90
2022-08-16T09:01:57.773Z,8.27
2022-08-16T09:04:33.122Z,9.30
2022-08-16T09:07:04.221Z,8.23
2022-08-16T09:09:34.299Z,7.43
2022-08-16T09:12:35.650Z,7.07
2022-08-16T09:15:05.475Z,11.43
2022-08-16T09:17:51.609Z,8.55
2022-08-16T09:20:25.988Z,7.57
2022-08-16T09:22:54.589Z,10.10
2022-08-16T09:25:39.356Z,11.43
2022-08-16T09:29:13.457Z,9.55
2022-08-16T09:31:08.684Z,13.52
2022-08-16T09:33:39.222Z,12.68
2022-08-16T09:36:12.127Z,16.33
2022-08-16T09:39:00.009Z,14.55
2022-08-16T09:41:28.120Z,8.65
2022-08-16T09:43:59.976Z,12.80
2022-08-16T09:46:45.064Z,9.75
2022-08-16T09:49:19.725Z,11.93
2022-08-16T09:51:54.298Z,12.15
2022-08-16T09:54:24.313Z,8.90
2022-08-16T09:57:00.350Z,9.23
2022-08-16T09:59:30.661Z,12.88
2022-08-16T10:01:58.343Z,8.23
2022-08-16T10:04:30.927Z,9.90
2022-08-16T10:07:15.114Z,10.40
2022-08-16T10:09:55.095Z,12.73
2022-08-16T10:12:45.409Z,9.63
2022-08-16T10:15:21.154Z,13.18
2022-08-16T10:18:00.780Z,11.52
2022-08-16T10:20:34.144Z,9.05
2022-08-16T10:23:07.206Z,9.15
2022-08-16T10:27:19.946Z,12.75
2022-08-16T10:28:32.325Z,12.45
2022-08-16T10:31:07.999Z,10.20
2022-08-16T10:33:40.385Z,11.77
2022-08-16T10:36:09.335Z,11.48
2022-08-16T10:38:41.978Z,8.67
2022-08-16T10:41:11.328Z,8.68
2022-08-16T10:43:43.613Z,10.00
2022-08-16T10:46:39.086Z,12.15
2022-08-16T10:49:00.999Z,9.48
2022-08-16T10:51:34.410Z,11.70
2022-08-16T10:54:29.499Z,9.88
2022-08-16T10:57:04.135Z,10.27
2022-08-16T10:59:43.937Z,9.00
2022-08-16T11:02:59.635Z,10.05
2022-08-16T11:05:11.891Z,10.75
2022-08-16T11:07:42.994Z,10.30
2022-08-16T11:10:21.165Z,11.18
2022-08-16T11:15:55.505Z,9.23
2022-08-16T11:19:04.873Z,7.72
2022-08-16T11:21:29.192Z,10.93
2022-08-16T11:23:59.560Z,9.40
2022-08-16T11:26:27.582Z,14.57
2022-08-16T11:29:13.179Z,11.43
2022-08-16T11:31:45.710Z,10.35
2022-08-16T11:34:21.149Z,10.85
2022-08-16T11:36:53.765Z,9.20
2022-08-16T11:39:28.263Z,9.27
2022-08-16T11:41:55.839Z,12.55
2022-08-16T11:44:36.584Z,8.50
2022-08-16T11:47:10.463Z,9.70
2022-08-16T11:49:37.872Z,8.05
2022-08-16T11:52:05.897Z,15.65
2022-08-16T11:54:36.626Z,11.23
2022-08-16T11:57:09.375Z,10.93
2022-08-16T11:59:39.941Z,9.45
2022-08-16T12:02:32.192Z,8.52
2022-08-16T12:04:57.155Z,8.43
2022-08-16T12:07:24.434Z,11.07
2022-08-16T12:09:53.470Z,8.25
2022-08-16T12:12:23.410Z,9.13
2022-08-16T12:15:00.007Z,9.77
2022-08-16T12:17:31.649Z,14.93
2022-08-16T12:20:01.086Z,9.57
2022-08-16T12:22:29.311Z,7.80
2022-08-16T12:24:56.851Z,11.75
2022-08-16T12:27:26.246Z,8.38
2022-08-16T12:29:58.418Z,9.95
2022-08-16T12:35:10.068Z,9.00
2022-08-16T12:37:37.706Z,12.35
2022-08-16T12:40:23.872Z,9.77
2022-08-16T12:42:58.386Z,7.13
2022-08-16T12:45:29.780Z,10.52
2022-08-16T12:48:34.425Z,8.60
2022-08-16T12:51:13.543Z,8.35
2022-08-16T12:53:53.909Z,7.85
2022-08-16T12:56:25.159Z,13.60
2022-08-16T12:58:56.071Z,8.57
2022-08-16T13:01:29.720Z,12.25
2022-08-16T13:04:20.537Z,8.10
2022-08-16T13:06:48.799Z,10.98
2022-08-16T13:09:21.526Z,12.70
2022-08-16T13:12:07.724Z,10.30
2022-08-16T13:14:41.179Z,8.85
2022-08-16T13:17:17.003Z,8.27
2022-08-16T13:20:08.612Z,16.60
2022-08-16T13:22:50.627Z,8.50
2022-08-16T13:25:24.834Z,14.45
2022-08-16T13:28:15.230Z,8.00
2022-08-16T13:30:46.166Z,12.95
2022-08-16T13:33:18.989Z,11.23
2022-08-16T13:35:58.405Z,9.15
2022-08-16T13:38:37.283Z,9.38
2022-08-16T13:41:08.819Z,12.68
2022-08-16T13:43:38.600Z,9.60
2022-08-16T13:46:07.562Z,13.30
2022-08-16T13:48:42.686Z,14.38
2022-08-16T13:51:18.734Z,8.70
2022-08-16T13:53:54.433Z,10.55
2022-08-16T13:56:34.464Z,11.73
2022-08-16T13:59:14.207Z,8.45
2022-08-16T14:01:56.681Z,11.57
2022-08-16T14:04:33.088Z,10.05
2022-08-16T14:07:02.372Z,11.05
2022-08-16T14:09:31.942Z,11.90
2022-08-16T14:12:00.974Z,11.45
2022-08-16T14:14:32.393Z,11.32
2022-08-16T14:17:02.277Z,12.95
2022-08-16T14:19:30.503Z,10.75
2022-08-16T14:22:14.354Z,10.43
2022-08-16T14:24:47.244Z,12.45
2022-08-16T14:27:23.293Z,8.23
2022-08-16T14:29:51.993Z,11.07
2022-08-16T14:32:33.687Z,9.52
2022-08-16T14:35:07.137Z,12.95
2022-08-16T14:37:35.569Z,7.85
2022-08-16T14:40:04.067Z,10.32
2022-08-16T14:42:32.574Z,14.35
2022-08-16T14:45:05.345Z,12.77
2022-08-16T14:47:34.311Z,9.82
2022-08-16T14:50:03.199Z,12.52
2022-08-16T14:55:21.990Z,15.00
2022-08-16T14:57:49.624Z,11.77
2022-08-16T15:00:32.918Z,15.93
2022-08-16T15:03:05.976Z,10.63
2022-08-16T15:05:34.001Z,13.70
2022-08-16T15:08:02.766Z,11.90
2022-08-16T15:10:32.231Z,13.05
2022-08-16T15:13:01.350Z,11.40
2022-08-16T15:15:30.327Z,10.25
2022-08-16T15:17:57.722Z,11.35
2022-08-16T15:20:29.489Z,10.35
2022-08-16T15:22:59.120Z,12.55
2022-08-16T15:25:33.307Z,10.20
2022-08-16T15:28:05.588Z,14.75
2022-08-16T15:30:59.752Z,14.13
2022-08-16T15:35:55.213Z,15.32
2022-08-16T15:38:57.528Z,10.98
2022-08-16T15:41:10.654Z,10.85
2022-08-16T15:43:40.601Z,10.52
2022-08-16T15:46:35.593Z,13.52
2022-08-16T15:49:14.622Z,13.35
2022-08-16T15:51:43.544Z,16.88
2022-08-16T15:54:29.106Z,23.88
2022-08-16T15:57:04.320Z,15.02
2022-08-16T15:59:49.523Z,10.52
2022-08-16T16:02:27.396Z,14.43
2022-08-16T16:05:00.699Z,11.63
2022-08-16T16:07:30.164Z,13.38
2022-08-16T16:09:59.515Z,14.50
2022-08-16T16:12:53.225Z,13.68
2022-08-16T16:15:22.768Z,13.00
2022-08-16T16:17:53.622Z,11.00
2022-08-16T16:20:27.557Z,16.67
2022-08-16T16:22:57.876Z,14.57
2022-08-16T16:25:27.324Z,13.57
2022-08-16T16:27:59.570Z,13.77
2022-08-16T16:30:33.185Z,12.25
2022-08-16T16:33:15.866Z,17.75
2022-08-16T16:35:55.174Z,14.77
2022-08-16T16:38:31.049Z,8.55
2022-08-16T16:41:00.200Z,14.00
2022-08-16T16:43:31.799Z,13.32
2022-08-16T16:46:01.659Z,10.18
2022-08-16T16:48:34.942Z,16.73
2022-08-16T16:51:09.346Z,10.25
2022-08-16T16:53:41.521Z,18.27
2022-08-16T16:56:19.543Z,15.03
2022-08-16T16:59:01.054Z,15.20
2022-08-16T17:01:56.858Z,17.42
2022-08-16T17:04:32.563Z,18.80
2022-08-16T17:09:30.965Z,14.02
2022-08-16T17:11:59.549Z,14.05
2022-08-16T17:14:33.709Z,16.35
2022-08-16T17:17:09.001Z,15.02
2022-08-16T17:19:41.650Z,12.27
2022-08-16T17:22:16.367Z,15.85
2022-08-16T17:24:52.625Z,16.55
2022-08-16T17:27:33.104Z,18.55
2022-08-16T17:30:15.087Z,17.80
2022-08-16T17:32:54.634Z,15.60
2022-08-16T17:35:34.316Z,18.13
2022-08-16T17:38:08.915Z,18.00
2022-08-16T17:40:55.578Z,17.38
2022-08-16T17:43:36.023Z,14.38
2022-08-16T17:46:05.199Z,22.58
2022-08-16T17:48:52.439Z,17.00
2022-08-16T17:51:20.575Z,17.95
2022-08-16T17:53:50.535Z,18.98
2022-08-16T17:56:18.083Z,13.93
2022-08-16T17:58:45.323Z,12.95
2022-08-16T18:01:13.181Z,15.07
2022-08-16T18:04:06.996Z,14.02
2022-08-16T18:06:29.812Z,18.77
2022-08-16T18:09:03.716Z,13.93
2022-08-16T18:11:40.870Z,12.15
2022-08-16T18:14:09.952Z,17.23
2022-08-16T18:16:37.070Z,18.02
2022-08-16T18:19:05.704Z,17.25
2022-08-16T18:21:51.940Z,11.57
2022-08-16T18:24:19.610Z,12.48
2022-08-16T18:26:46.765Z,14.45
2022-08-16T18:29:14.276Z,18.65
2022-08-16T18:31:41.458Z,14.73
2022-08-16T18:34:08.711Z,14.43
2022-08-16T18:36:37.303Z,15.77
2022-08-16T18:39:06.104Z,13.98
2022-08-16T18:41:38.182Z,18.77
2022-08-16T18:44:26.445Z,12.70
2022-08-16T18:46:55.342Z,14.63
2022-08-16T18:49:22.591Z,13.25
2022-08-16T18:51:51.045Z,19.50
2022-08-16T18:54:18.662Z,14.15
2022-08-16T18:56:55.744Z,15.52
2022-08-16T18:59:29.575Z,13.38
2022-08-16T19:02:04.546Z,17.27
2022-08-16T19:04:57.438Z,16.13
2022-08-16T19:07:30.443Z,14.23
2022-08-16T19:10:02.320Z,15.07
2022-08-16T19:12:38.206Z,15.32
2022-08-16T19:15:15.611Z,18.17
2022-08-16T19:17:44.501Z,16.40
2022-08-16T19:20:15.764Z,12.32
2022-08-16T19:23:05.102Z,19.23
2022-08-16T19:25:47.225Z,17.33
2022-08-16T19:28:57.929Z,15.38
2022-08-16T19:31:23.753Z,11.15
2022-08-16T19:33:55.590Z,13.30
2022-08-16T19:36:33.948Z,12.63
2022-08-16T19:39:10.864Z,16.15
2022-08-16T19:41:41.077Z,19.67
2022-08-16T19:44:08.891Z,16.25
2022-08-16T19:46:37.882Z,12.65
2022-08-16T19:49:05.647Z,15.32
2022-08-16T19:51:33.018Z,14.82
2022-08-16T19:54:00.981Z,16.80
2022-08-16T19:56:28.131Z,12.57
2022-08-16T19:59:18.207Z,22.55
2022-08-16T20:01:44.416Z,12.95
2022-08-16T20:04:12.985Z,14.65
2022-08-16T20:06:41.723Z,15.32
2022-08-16T20:09:10.971Z,16.05
2022-08-16T20:11:44.525Z,15.85
2022-08-16T20:14:24.381Z,14.82
2022-08-16T20:16:57.276Z,10.32
2022-08-16T20:19:27.654Z,15.43
2022-08-16T20:22:00.041Z,14.00
2022-08-16T20:24:34.685Z,12.73
2022-08-16T20:27:06.372Z,12.18
2022-08-16T20:29:35.715Z,15.68
2022-08-16T20:32:07.241Z,19.38
2022-08-16T20:34:35.189Z,14.05
2022-08-16T20:37:02.405Z,12.43
2022-08-16T20:39:29.728Z,13.98
2022-08-16T20:41:56.894Z,13.75
2022-08-16T20:44:25.169Z,15.35
2022-08-16T20:46:53.059Z,15.10
2022-08-16T20:49:21.530Z,13.25
2022-08-16T20:51:51.795Z,9.00
2022-08-16T20:54:22.315Z,15.15
2022-08-16T20:56:49.951Z,15.25
2022-08-16T20:59:19.429Z,16.13
2022-08-16T21:01:50.567Z,12.85
2022-08-16T21:04:25.646Z,22.95
2022-08-16T21:06:53.622Z,14.32
2022-08-16T21:09:26.972Z,16.50
2022-08-16T21:11:56.139Z,16.15
2022-08-16T21:14:24.219Z,20.58
2022-08-16T21:16:51.702Z,19.63
2022-08-16T21:19:19.887Z,22.65
2022-08-16T21:21:47.453Z,16.50
2022-08-16T21:24:15.054Z,16.90
2022-08-16T21:26:49.837Z,15.77
2022-08-16T21:29:24.823Z,17.55
2022-08-16T21:31:52.520Z,15.70
2022-08-16T21:34:19.731Z,8.00
2022-08-16T21:36:46.843Z,15.18
2022-08-16T21:39:14.022Z,12.27
2022-08-16T21:41:41.190Z,14.88
2022-08-16T21:44:08.401Z,11.88
2022-08-16T21:46:35.812Z,13.45
2022-08-16T21:49:04.877Z,10.55
2022-08-16T21:51:32.129Z,11.23
2022-08-16T21:53:59.529Z,13.93
2022-08-16T21:56:26.947Z,15.23
2022-08-16T21:58:54.273Z,13.15
2022-08-16T22:01:23.438Z,11.70
2022-08-16T22:04:35.278Z,14.68
2022-08-16T22:06:40.308Z,13.55
2022-08-16T22:09:08.845Z,17.15
2022-08-16T22:11:36.763Z,19.58
2022-08-16T22:14:04.815Z,20.95
2022-08-16T22:16:37.829Z,26.35
2022-08-16T22:19:06.070Z,18.13
2022-08-16T22:21:34.350Z,23.42
2022-08-16T22:24:01.778Z,16.50
2022-08-16T22:26:32.201Z,19.50
2022-08-16T22:29:05.808Z,15.20
2022-08-16T22:31:33.423Z,18.65
2022-08-16T22:34:02.177Z,19.20
2022-08-16T22:36:31.189Z,14.07
2022-08-16T22:39:00.192Z,19.67
2022-08-16T22:41:29.305Z,19.73
2022-08-16T22:43:56.576Z,17.80
2022-08-16T22:46:24.651Z,18.50
2022-08-16T22:48:51.906Z,18.98
2022-08-16T22:51:21.334Z,16.27
2022-08-16T22:53:48.816Z,18.95
2022-08-16T22:56:16.162Z,17.05
2022-08-16T22:58:44.666Z,23.83
2022-08-16T23:01:12.939Z,20.05
2022-08-16T23:03:40.646Z,21.77
2022-08-16T23:06:11.279Z,19.23
2022-08-16T23:08:40.776Z,19.17
2022-08-16T23:11:15.427Z,23.88
2022-08-16T23:13:53.149Z,21.27
2022-08-16T23:16:33.208Z,17.63
2022-08-16T23:19:06.290Z,18.02
2022-08-16T23:21:35.054Z,16.75
2022-08-16T23:24:03.061Z,16.02
2022-08-16T23:26:36.429Z,24.00
2022-08-16T23:29:19.805Z,21.77
2022-08-16T23:31:50.568Z,22.13
2022-08-16T23:34:21.773Z,17.15
2022-08-16T23:36:49.209Z,18.67
2022-08-16T23:39:16.521Z,18.45
2022-08-16T23:41:45.725Z,19.02
2022-08-16T23:44:56.743Z,17.08
2022-08-16T23:47:00.133Z,17.42
2022-08-16T23:49:57.445Z,14.50
2022-08-16T23:52:17.623Z,22.35
2022-08-16T23:54:44.844Z,19.20
2022-08-16T23:57:14.495Z,18.00
2022-08-16T23:59:52.224Z,24.52
